Time;durP1;ratioP1;P1;durP2;ratioP2;P2;SDS_P1;SDS_P2;PMS_P1;PMS_P2;Temp;Humidity;BMP_temperature;BMP_pressure;BME280_temperature;BME280_humidity;BME280_pressure;Samples;Min_cycle;Max_cycle;Signal;HPM_P1;HPM_P2
2022/11/07 00:01:11;;;;;;;7.00;1.52;;;10.50;99.90;;;;;;5032034;28;20116;-73
2022/11/07 00:03:36;;;;;;;8.20;1.45;;;10.60;99.90;;;;;;5030310;28;20040;-73
2022/11/07 00:06:02;;;;;;;4.47;1.60;;;10.60;99.90;;;;;;5053063;28;20033;-73
2022/11/07 00:08:31;;;;;;;6.80;1.92;;;10.60;99.90;;;;;;5053425;28;20029;-73
2022/11/07 00:10:57;;;;;;;6.47;1.30;;;10.50;99.90;;;;;;5017923;28;20041;-72
2022/11/07 00:13:24;;;;;;;8.05;1.48;;;10.50;99.90;;;;;;5051671;28;20519;-74
2022/11/07 00:15:50;;;;;;;7.13;1.45;;;10.50;99.90;;;;;;5052278;28;20043;-74
2022/11/07 00:18:15;;;;;;;9.00;1.73;;;10.50;99.90;;;;;;5019429;28;20032;-74
2022/11/07 00:20:42;;;;;;;10.25;2.38;;;10.60;99.90;;;;;;5051337;28;20032;-74
2022/11/07 00:23:08;;;;;;;13.85;1.80;;;10.70;99.90;;;;;;5048516;28;20106;-74
2022/11/07 00:25:33;;;;;;;4.38;1.10;;;10.70;99.90;;;;;;5052565;28;20087;-74
2022/11/07 00:27:59;;;;;;;5.15;1.10;;;10.70;99.90;;;;;;5052769;28;20493;-74
2022/11/07 00:30:24;;;;;;;5.85;1.65;;;10.80;99.90;;;;;;5052655;28;20051;-75
2022/11/07 00:32:50;;;;;;;4.55;1.30;;;10.80;99.90;;;;;;5033189;28;20033;-74
2022/11/07 00:35:15;;;;;;;5.97;1.17;;;10.80;99.90;;;;;;5052130;28;20074;-74
2022/11/07 00:37:41;;;;;;;6.50;1.48;;;10.70;99.90;;;;;;5053108;28;20473;-74
2022/11/07 00:40:08;;;;;;;4.80;1.17;;;10.70;99.90;;;;;;5050776;28;20036;-73
2022/11/07 00:42:33;;;;;;;4.55;1.20;;;10.70;99.90;;;;;;5052476;28;20025;-73
2022/11/07 00:44:59;;;;;;;6.25;1.42;;;10.70;99.90;;;;;;5048183;28;20079;-73
2022/11/07 00:47:24;;;;;;;7.32;1.20;;;10.70;99.90;;;;;;5052427;28;20029;-74
2022/11/07 00:49:50;;;;;;;7.13;1.38;;;10.70;99.90;;;;;;5051025;28;20044;-74
2022/11/07 00:52:16;;;;;;;6.97;1.38;;;10.70;99.90;;;;;;5052174;28;20086;-74
2022/11/07 00:54:41;;;;;;;7.55;1.40;;;10.60;99.90;;;;;;5049447;28;20035;-74
2022/11/07 00:57:07;;;;;;;7.22;1.05;;;10.70;99.90;;;;;;5051452;28;20165;-74
2022/11/07 00:59:32;;;;;;;7.85;2.38;;;10.70;99.90;;;;;;5033309;28;20040;-74
2022/11/07 01:01:58;;;;;;;6.18;1.50;;;10.70;99.90;;;;;;5034284;28;20025;-74
2022/11/07 01:07:08;;;;;;;6.93;1.50;;;10.80;99.90;;;;;;5051431;28;20040;-74
2022/11/07 01:09:34;;;;;;;7.18;1.00;;;10.80;99.90;;;;;;5051800;28;20025;-73
2022/11/07 01:11:59;;;;;;;5.95;1.13;;;10.90;99.90;;;;;;5032769;28;20029;-73
2022/11/07 01:14:25;;;;;;;5.32;1.15;;;10.80;99.90;;;;;;5050345;28;20048;-74
2022/11/07 01:16:51;;;;;;;6.78;1.13;;;10.80;99.90;;;;;;5052015;28;20035;-73
2022/11/07 01:19:17;;;;;;;5.82;1.05;;;10.80;99.90;;;;;;5050547;28;20040;-74
2022/11/07 01:21:43;;;;;;;6.93;1.23;;;10.70;99.90;;;;;;5034218;28;20108;-74
2022/11/07 01:24:14;;;;;;;9.82;1.33;;;10.70;99.90;;;;;;5033621;28;20124;-74
2022/11/07 01:26:41;;;;;;;6.30;0.90;;;10.60;99.90;;;;;;5051212;28;20032;-74
2022/11/07 01:29:07;;;;;;;8.70;1.25;;;10.60;99.90;;;;;;5031663;28;20037;-74
2022/11/07 01:31:34;;;;;;;6.07;1.00;;;10.60;99.90;;;;;;5051714;28;20102;-73
2022/11/07 01:34:00;;;;;;;5.05;1.05;;;10.60;99.90;;;;;;5033492;28;20032;-74
2022/11/07 01:36:26;;;;;;;4.88;1.13;;;10.50;99.90;;;;;;5049569;28;20067;-73
2022/11/07 01:38:52;;;;;;;4.75;1.20;;;10.50;99.90;;;;;;5023089;28;20024;-74
2022/11/07 01:41:25;;;;;;;4.38;0.93;;;10.50;99.90;;;;;;5030701;28;20032;-74
2022/11/07 01:44:25;;;;;;;8.05;0.95;;;10.50;99.90;;;;;;5049790;28;20017;-74
2022/11/07 01:46:56;;;;;;;11.30;1.45;;;10.50;99.90;;;;;;5045800;28;20096;-73
2022/11/07 01:49:33;;;;;;;8.95;2.28;;;10.40;99.90;;;;;;5049275;28;20412;-74
2022/11/07 01:52:21;;;;;;;8.85;1.70;;;10.40;99.90;;;;;;5034243;28;20067;-74
2022/11/07 01:55:13;;;;;;;9.13;1.30;;;10.40;99.90;;;;;;5047304;28;20331;-73
2022/11/07 01:57:53;;;;;;;8.90;1.33;;;10.40;99.90;;;;;;5048157;28;20116;-74
2022/11/07 02:00:22;;;;;;;3.50;0.90;;;10.40;99.90;;;;;;5050864;28;20039;-73
2022/11/07 02:02:53;;;;;;;6.93;1.20;;;10.40;99.90;;;;;;5031341;28;20507;-75
2022/11/07 02:05:37;;;;;;;3.92;0.93;;;10.40;99.90;;;;;;5050212;28;20036;-73
2022/11/07 02:08:06;;;;;;;8.80;1.63;;;10.40;99.90;;;;;;5047309;28;20033;-73
2022/11/07 02:10:34;;;;;;;6.28;1.10;;;10.40;99.90;;;;;;5052786;28;20060;-73
2022/11/07 02:13:01;;;;;;;6.55;1.10;;;10.30;99.90;;;;;;5029554;28;20045;-74
2022/11/07 02:15:26;;;;;;;10.48;1.55;;;10.40;99.90;;;;;;5023213;28;20022;-73
2022/11/07 02:17:54;;;;;;;6.85;1.20;;;10.40;99.90;;;;;;5022950;28;20080;-75
2022/11/07 02:20:19;;;;;;;3.92;1.00;;;10.40;99.90;;;;;;5031717;28;20060;-74
2022/11/07 02:23:02;;;;;;;5.82;1.40;;;10.40;99.90;;;;;;5028500;28;20104;-74
2022/11/07 02:25:29;;;;;;;7.43;1.58;;;10.40;99.90;;;;;;5029728;28;20103;-74
2022/11/07 02:27:58;;;;;;;7.18;1.45;;;10.40;99.90;;;;;;5030204;28;20142;-74
2022/11/07 02:30:30;;;;;;;7.13;1.02;;;10.40;99.90;;;;;;5029973;28;20040;-74
2022/11/07 02:32:55;;;;;;;5.30;1.65;;;10.30;99.90;;;;;;5020613;28;20136;-74
2022/11/07 02:35:41;;;;;;;7.00;1.20;;;10.30;99.90;;;;;;5029061;28;20560;-74
2022/11/07 02:38:12;;;;;;;8.15;1.58;;;10.30;99.90;;;;;;5028821;28;20044;-74
2022/11/07 02:40:38;;;;;;;10.70;1.20;;;10.30;99.90;;;;;;5031120;28;20056;-74
2022/11/07 02:43:08;;;;;;;9.57;1.88;;;10.30;99.90;;;;;;5025726;28;20025;-74
2022/11/07 02:45:36;;;;;;;6.78;1.23;;;10.40;99.90;;;;;;5029900;28;20083;-74
2022/11/07 02:48:02;;;;;;;7.55;1.10;;;10.30;99.90;;;;;;5027755;28;20033;-74
2022/11/07 02:50:28;;;;;;;9.88;1.20;;;10.30;99.90;;;;;;5029729;28;20053;-75
2022/11/07 02:52:53;;;;;;;12.38;1.98;;;10.30;99.90;;;;;;5023003;28;20087;-74
2022/11/07 02:55:19;;;;;;;14.00;1.48;;;10.40;99.90;;;;;;5031136;28;20036;-74
2022/11/07 02:57:45;;;;;;;7.88;1.55;;;10.40;99.90;;;;;;5030134;28;20045;-74
2022/11/07 03:00:13;;;;;;;14.60;3.65;;;10.40;99.90;;;;;;5029521;28;20034;-74
2022/11/07 03:02:45;;;;;;;9.55;2.13;;;10.40;99.90;;;;;;5028731;28;20013;-74
2022/11/07 03:05:12;;;;;;;10.63;1.30;;;10.50;99.90;;;;;;5027934;28;20075;-74
2022/11/07 03:07:38;;;;;;;7.00;1.40;;;10.50;99.90;;;;;;5023882;28;20028;-74
2022/11/07 03:10:04;;;;;;;7.97;1.35;;;10.50;99.90;;;;;;5011509;28;20545;-75
2022/11/07 03:12:29;;;;;;;5.03;1.40;;;10.60;99.90;;;;;;5032258;28;20056;-74
2022/11/07 03:14:55;;;;;;;14.23;1.50;;;10.60;99.90;;;;;;5047841;28;20027;-74
2022/11/07 03:17:20;;;;;;;9.10;1.33;;;10.60;99.90;;;;;;5030322;28;20044;-74
2022/11/07 03:19:46;;;;;;;6.70;1.63;;;10.70;99.90;;;;;;5051306;28;20040;-74
2022/11/07 03:22:12;;;;;;;7.60;1.40;;;10.70;99.90;;;;;;5048081;28;20036;-74
2022/11/07 03:24:37;;;;;;;10.40;1.35;;;10.60;99.90;;;;;;5048606;28;20393;-74
2022/11/07 03:27:03;;;;;;;9.35;1.45;;;10.70;99.90;;;;;;5047580;28;20103;-75
2022/11/07 03:29:29;;;;;;;8.02;1.30;;;10.70;99.90;;;;;;5030419;28;20322;-74
2022/11/07 03:31:54;;;;;;;9.85;1.40;;;10.60;99.90;;;;;;5042215;28;20440;-74
2022/11/07 03:34:20;;;;;;;10.60;1.35;;;10.60;99.90;;;;;;5032129;28;20555;-74
2022/11/07 03:36:45;;;;;;;11.68;1.80;;;10.60;99.90;;;;;;5052487;28;20075;-74
2022/11/07 03:39:11;;;;;;;7.22;1.10;;;10.70;99.90;;;;;;5035727;28;20088;-74
2022/11/07 03:41:37;;;;;;;10.38;1.08;;;10.70;99.90;;;;;;5055297;28;20032;-74
2022/11/07 03:44:02;;;;;;;11.02;1.20;;;10.70;99.90;;;;;;5052592;28;20036;-74
2022/11/07 03:46:28;;;;;;;7.75;1.20;;;10.60;99.90;;;;;;5053170;28;20043;-74
2022/11/07 03:48:54;;;;;;;7.38;1.52;;;10.70;99.90;;;;;;5052624;28;20669;-74
2022/11/07 03:51:19;;;;;;;9.13;1.35;;;10.70;99.90;;;;;;5033695;28;20104;-74
2022/11/07 03:53:45;;;;;;;11.27;1.45;;;10.70;99.90;;;;;;5052818;28;20021;-74
2022/11/07 03:56:11;;;;;;;7.78;1.58;;;10.70;99.90;;;;;;5053728;28;20044;-74
2022/11/07 03:58:37;;;;;;;10.60;1.10;;;10.70;99.90;;;;;;5051779;28;20029;-74
2022/11/07 04:01:04;;;;;;;8.10;1.02;;;10.70;99.90;;;;;;5053742;28;20028;-74
2022/11/07 04:03:30;;;;;;;13.02;1.25;;;10.70;99.90;;;;;;5051003;28;20024;-74
2022/11/07 04:05:56;;;;;;;7.28;0.93;;;10.70;99.90;;;;;;5052486;28;20095;-74
2022/11/07 04:08:22;;;;;;;9.75;1.35;;;10.80;99.90;;;;;;5023376;28;20020;-74
2022/11/07 04:10:48;;;;;;;12.57;1.42;;;10.80;99.90;;;;;;5050792;28;20037;-74
2022/11/07 04:18:43;;;;;;;9.27;1.20;;;10.80;99.90;;;;;;5053464;28;20556;-74
2022/11/07 04:21:08;;;;;;;12.43;1.35;;;10.90;99.90;;;;;;5033029;28;20115;-74
2022/11/07 04:23:35;;;;;;;8.43;0.90;;;10.80;99.90;;;;;;5031727;28;20021;-74
2022/11/07 04:28:55;;;;;;;10.77;1.10;;;10.90;99.90;;;;;;4997224;28;20034;-74
2022/11/07 04:31:21;;;;;;;8.90;1.10;;;11.00;99.90;;;;;;5053586;28;20596;-74
2022/11/07 04:33:47;;;;;;;10.65;1.90;;;11.00;99.90;;;;;;5052460;28;20021;-74
2022/11/07 04:36:13;;;;;;;11.35;1.70;;;11.00;99.90;;;;;;5053672;28;20530;-74
2022/11/07 04:38:39;;;;;;;11.45;1.10;;;11.10;99.90;;;;;;5052403;28;20060;-74
2022/11/07 04:41:05;;;;;;;13.40;1.20;;;11.10;99.90;;;;;;5033624;28;20438;-74
2022/11/07 04:43:31;;;;;;;11.25;1.00;;;11.20;99.90;;;;;;5021539;28;20349;-74
2022/11/07 04:45:56;;;;;;;10.80;1.02;;;11.20;99.90;;;;;;5050911;28;20032;-75
2022/11/07 04:48:22;;;;;;;8.85;1.00;;;11.20;99.90;;;;;;5050502;28;20029;-75
2022/11/07 04:50:48;;;;;;;12.48;1.10;;;11.20;99.90;;;;;;5026786;28;20037;-74
2022/11/07 04:53:16;;;;;;;10.27;1.40;;;11.20;99.90;;;;;;5048932;28;20024;-74
2022/11/07 04:55:43;;;;;;;13.55;1.08;;;11.20;99.90;;;;;;5048451;28;20033;-75
2022/11/07 04:58:09;;;;;;;10.15;0.80;;;11.30;99.90;;;;;;5051188;28;20033;-75
2022/11/07 05:00:35;;;;;;;9.25;0.95;;;11.30;99.90;;;;;;5051795;28;20059;-75
2022/11/07 05:03:01;;;;;;;14.75;1.30;;;11.20;99.90;;;;;;5048840;28;20090;-74
2022/11/07 05:05:27;;;;;;;10.32;1.25;;;11.20;99.90;;;;;;5053123;28;20033;-74
2022/11/07 05:07:53;;;;;;;15.32;1.25;;;11.20;99.90;;;;;;5050267;28;20032;-75
2022/11/07 05:10:22;;;;;;;9.18;0.90;;;11.20;99.90;;;;;;5032222;28;20487;-75
2022/11/07 05:12:47;;;;;;;12.02;1.35;;;11.20;99.90;;;;;;5035863;28;20053;-75
2022/11/07 05:15:14;;;;;;;18.73;1.48;;;11.20;99.90;;;;;;5049626;28;20048;-75
2022/11/07 05:17:39;;;;;;;9.68;0.90;;;11.20;99.90;;;;;;5051525;28;20060;-75
2022/11/07 05:20:06;;;;;;;13.90;1.15;;;11.20;99.90;;;;;;5034719;28;20068;-75
2022/11/07 05:25:16;;;;;;;13.52;1.20;;;11.20;99.90;;;;;;5049030;28;20028;-75
2022/11/07 05:27:42;;;;;;;9.25;1.23;;;11.20;99.90;;;;;;5045631;28;20029;-74
2022/11/07 05:30:09;;;;;;;9.57;1.02;;;11.10;99.90;;;;;;5008123;28;20064;-74
2022/11/07 05:32:37;;;;;;;10.65;1.00;;;11.10;99.90;;;;;;5051307;28;20107;-74
2022/11/07 05:35:03;;;;;;;14.43;1.70;;;11.00;99.90;;;;;;5052680;28;20028;-74
2022/11/07 05:37:29;;;;;;;11.82;1.60;;;11.00;99.90;;;;;;5031161;28;20059;-75
2022/11/07 05:39:55;;;;;;;15.95;1.20;;;11.00;99.90;;;;;;5031505;28;20056;-75
2022/11/07 05:42:20;;;;;;;13.50;1.23;;;11.00;99.90;;;;;;5034502;28;20021;-74
2022/11/07 05:44:46;;;;;;;13.30;1.45;;;11.00;99.90;;;;;;5049328;28;20029;-75
2022/11/07 05:47:11;;;;;;;12.52;1.48;;;11.00;99.90;;;;;;5032262;28;20024;-75
2022/11/07 05:49:37;;;;;;;10.90;1.00;;;11.10;99.90;;;;;;5050060;28;20116;-75
2022/11/07 05:52:03;;;;;;;10.40;0.70;;;11.10;99.90;;;;;;5032064;28;20428;-75
2022/11/07 05:54:29;;;;;;;9.25;1.05;;;11.10;99.90;;;;;;5051015;28;20033;-75
2022/11/07 05:56:56;;;;;;;13.15;0.80;;;11.10;99.90;;;;;;5033127;28;20431;-75
2022/11/07 05:59:22;;;;;;;10.50;1.00;;;11.20;99.90;;;;;;5048554;28;20074;-74
2022/11/07 06:01:47;;;;;;;9.52;1.10;;;11.20;99.90;;;;;;5049578;28;20108;-74
2022/11/07 06:04:13;;;;;;;11.55;1.33;;;11.20;99.90;;;;;;5046221;28;20029;-74
2022/11/07 06:06:39;;;;;;;11.55;1.08;;;11.20;99.90;;;;;;5051280;28;20044;-74
2022/11/07 06:09:04;;;;;;;10.90;0.93;;;11.20;99.90;;;;;;5051058;28;20166;-74
2022/11/07 06:11:31;;;;;;;16.98;0.93;;;11.20;99.90;;;;;;5049189;28;20386;-75
2022/11/07 06:13:57;;;;;;;10.40;1.10;;;11.30;99.90;;;;;;5032853;28;20091;-75
2022/11/07 06:16:23;;;;;;;12.05;1.00;;;11.30;99.90;;;;;;5032942;28;20420;-74
2022/11/07 06:18:49;;;;;;;12.80;1.65;;;11.30;99.90;;;;;;5043057;28;20060;-75
2022/11/07 06:21:15;;;;;;;9.13;0.85;;;11.30;99.90;;;;;;5044020;28;20043;-75
2022/11/07 06:23:42;;;;;;;12.95;1.25;;;11.30;99.90;;;;;;5051029;28;20414;-75
2022/11/07 06:26:08;;;;;;;12.10;1.17;;;11.30;99.90;;;;;;5033753;28;20424;-75
2022/11/07 06:28:34;;;;;;;14.48;0.93;;;11.30;99.90;;;;;;5032253;28;20024;-75
2022/11/07 06:31:01;;;;;;;12.20;1.40;;;11.30;99.90;;;;;;5050218;28;20045;-74
2022/11/07 06:33:31;;;;;;;11.75;1.00;;;11.30;99.90;;;;;;5031800;28;20551;-75
2022/11/07 06:36:11;;;;;;;10.20;0.90;;;11.30;99.90;;;;;;5051612;28;20035;-74
2022/11/07 06:38:38;;;;;;;14.20;1.00;;;11.30;99.90;;;;;;5051408;28;20047;-75
2022/11/07 06:41:06;;;;;;;17.08;1.30;;;11.20;99.90;;;;;;5048654;28;20025;-75
2022/11/07 06:43:32;;;;;;;14.35;1.30;;;11.30;99.90;;;;;;5031669;28;20112;-75
2022/11/07 06:46:02;;;;;;;9.52;1.10;;;11.20;99.90;;;;;;5033148;28;20036;-75
2022/11/07 06:48:28;;;;;;;16.60;1.05;;;11.20;99.90;;;;;;5049753;28;20033;-75
2022/11/07 06:50:58;;;;;;;11.73;1.40;;;11.20;99.90;;;;;;5042867;28;20090;-76
2022/11/07 06:53:24;;;;;;;20.05;0.95;;;11.20;99.90;;;;;;5047851;28;20025;-74
2022/11/07 06:55:50;;;;;;;11.23;1.00;;;11.30;99.90;;;;;;5045579;28;20108;-75
2022/11/07 06:58:15;;;;;;;10.10;1.13;;;11.30;99.90;;;;;;5051044;28;20029;-75
2022/11/07 07:00:41;;;;;;;9.50;1.05;;;11.30;99.90;;;;;;5048379;28;20025;-73
2022/11/07 07:03:07;;;;;;;16.08;1.42;;;11.40;99.90;;;;;;5011897;28;20091;-74
2022/11/07 07:05:33;;;;;;;17.75;1.60;;;11.40;99.90;;;;;;5049866;28;20400;-73
2022/11/07 07:07:59;;;;;;;13.65;1.67;;;11.50;99.90;;;;;;5047426;28;20033;-73
2022/11/07 07:10:25;;;;;;;9.65;1.17;;;11.50;99.90;;;;;;5040493;28;20048;-73
2022/11/07 07:12:51;;;;;;;15.05;1.30;;;11.60;99.90;;;;;;5048200;28;20037;-73
2022/11/07 07:15:17;;;;;;;13.43;1.08;;;11.60;99.90;;;;;;5030910;28;20502;-74
2022/11/07 07:17:43;;;;;;;17.45;1.75;;;11.70;99.90;;;;;;5047083;28;20025;-73
2022/11/07 07:20:09;;;;;;;6.68;0.80;;;11.70;99.90;;;;;;5020156;28;20109;-73
2022/11/07 07:22:35;;;;;;;16.27;2.22;;;11.70;99.90;;;;;;5041677;28;20112;-74
2022/11/07 07:25:00;;;;;;;12.30;1.52;;;11.80;99.90;;;;;;5041886;28;20109;-74
2022/11/07 07:27:26;;;;;;;13.93;1.05;;;11.80;99.90;;;;;;5024177;28;20036;-74
2022/11/07 07:29:52;;;;;;;14.23;0.95;;;11.80;99.90;;;;;;5048824;28;20388;-74
2022/11/07 07:32:18;;;;;;;10.90;1.40;;;11.90;99.90;;;;;;5032783;28;20064;-74
2022/11/07 07:34:44;;;;;;;11.43;0.80;;;11.90;99.90;;;;;;5049874;28;20024;-74
2022/11/07 07:37:09;;;;;;;10.80;1.35;;;12.00;99.90;;;;;;5023438;28;20358;-74
2022/11/07 07:39:35;;;;;;;12.27;1.13;;;12.00;99.90;;;;;;5043506;28;20021;-75
2022/11/07 07:42:01;;;;;;;13.75;1.00;;;12.00;99.90;;;;;;5027125;28;20021;-74
2022/11/07 07:44:26;;;;;;;11.30;0.95;;;12.00;99.90;;;;;;5049839;28;20027;-74
2022/11/07 07:46:52;;;;;;;13.85;1.50;;;11.90;99.90;;;;;;5048902;28;20086;-74
2022/11/07 07:49:18;;;;;;;10.60;1.08;;;11.90;99.90;;;;;;5044793;28;20036;-73
2022/11/07 07:51:43;;;;;;;10.98;1.15;;;12.00;99.90;;;;;;5046577;28;20036;-76
2022/11/07 07:54:12;;;;;;;9.75;1.30;;;12.00;99.90;;;;;;5049748;28;20028;-76
2022/11/07 07:56:38;;;;;;;16.02;2.65;;;12.00;99.90;;;;;;5051610;28;20025;-75
2022/11/07 07:59:03;;;;;;;12.60;1.42;;;12.00;99.90;;;;;;5033521;28;20717;-75
2022/11/07 08:01:29;;;;;;;10.98;1.00;;;12.00;99.90;;;;;;5040242;28;20455;-75
2022/11/07 08:03:54;;;;;;;12.05;1.27;;;12.10;99.90;;;;;;5041967;28;20029;-76
2022/11/07 08:06:20;;;;;;;10.88;0.82;;;12.20;99.90;;;;;;5039567;28;20469;-75
2022/11/07 08:08:46;;;;;;;12.38;1.38;;;12.20;99.90;;;;;;5041194;28;20465;-75
2022/11/07 08:11:11;;;;;;;11.45;1.27;;;12.20;99.90;;;;;;5035926;28;20041;-74
2022/11/07 08:13:37;;;;;;;13.45;1.27;;;12.20;99.90;;;;;;5040792;28;20049;-75
2022/11/07 08:16:06;;;;;;;13.43;2.45;;;12.20;99.90;;;;;;5037338;28;20488;-74
2022/11/07 08:18:32;;;;;;;13.30;1.38;;;12.30;99.90;;;;;;5032087;28;20051;-74
2022/11/07 08:20:57;;;;;;;9.13;1.55;;;12.30;99.90;;;;;;5034826;28;20033;-75
2022/11/07 08:23:23;;;;;;;10.20;0.93;;;12.40;99.90;;;;;;5040193;28;20167;-74
2022/11/07 08:26:01;;;;;;;8.32;0.82;;;12.40;99.90;;;;;;5048474;28;20033;-74
2022/11/07 08:28:28;;;;;;;12.18;0.82;;;12.40;99.90;;;;;;5044959;28;20469;-74
2022/11/07 08:31:09;;;;;;;11.93;1.15;;;12.40;99.90;;;;;;5044950;28;20060;-75
2022/11/07 08:33:35;;;;;;;7.97;1.15;;;12.40;99.90;;;;;;5049948;28;20029;-74
2022/11/07 08:36:01;;;;;;;10.63;0.98;;;12.40;99.90;;;;;;5045529;28;20033;-75
2022/11/07 08:38:32;;;;;;;7.55;1.05;;;12.40;99.90;;;;;;5042095;28;20567;-75
2022/11/07 08:40:58;;;;;;;10.40;1.00;;;12.40;99.90;;;;;;5020512;28;20074;-75
2022/11/07 08:43:24;;;;;;;10.57;1.67;;;12.50;99.90;;;;;;5040528;28;20104;-75
2022/11/07 08:45:52;;;;;;;10.25;1.98;;;12.60;99.90;;;;;;5038395;28;20064;-75
2022/11/07 08:48:17;;;;;;;10.60;1.05;;;12.70;99.90;;;;;;5040412;28;20032;-75
2022/11/07 08:50:43;;;;;;;13.73;1.15;;;12.70;99.90;;;;;;5040453;28;20036;-76
2022/11/07 08:53:09;;;;;;;7.35;0.90;;;12.80;99.90;;;;;;5043578;28;20029;-75
2022/11/07 08:55:35;;;;;;;13.05;1.23;;;12.90;99.90;;;;;;5046116;28;20040;-75
2022/11/07 08:58:03;;;;;;;12.90;1.15;;;12.90;99.90;;;;;;5043665;28;20040;-75
2022/11/07 09:00:29;;;;;;;15.80;1.35;;;12.90;99.90;;;;;;5024854;28;20021;-75
2022/11/07 09:02:55;;;;;;;6.18;0.82;;;13.00;99.90;;;;;;5044446;28;20037;-75
2022/11/07 09:05:21;;;;;;;9.65;1.02;;;13.00;99.90;;;;;;5042095;28;20040;-74
2022/11/07 09:07:47;;;;;;;8.73;0.80;;;13.10;99.90;;;;;;5033202;28;20025;-75
2022/11/07 09:10:12;;;;;;;10.25;1.13;;;13.20;99.90;;;;;;5024765;28;20033;-75
2022/11/07 09:12:45;;;;;;;10.43;0.90;;;13.10;99.90;;;;;;5045076;28;20030;-75
2022/11/07 09:15:12;;;;;;;6.95;0.70;;;13.20;99.90;;;;;;5040486;28;20033;-75
2022/11/07 09:17:37;;;;;;;13.10;0.77;;;13.20;99.90;;;;;;5043472;28;20052;-75
2022/11/07 09:20:03;;;;;;;12.77;0.80;;;13.20;99.90;;;;;;5042986;28;20063;-75
2022/11/07 09:22:29;;;;;;;14.90;1.17;;;13.30;99.90;;;;;;5020656;28;20029;-76
2022/11/07 09:24:54;;;;;;;8.38;0.80;;;13.40;99.90;;;;;;5042574;28;20025;-74
2022/11/07 09:27:20;;;;;;;10.80;1.02;;;13.40;99.90;;;;;;5042559;28;20365;-74
2022/11/07 09:29:46;;;;;;;11.35;0.90;;;13.40;99.90;;;;;;5039655;28;20484;-74
2022/11/07 09:32:11;;;;;;;11.80;1.02;;;13.50;99.90;;;;;;5047203;28;20385;-74
2022/11/07 09:34:38;;;;;;;14.90;1.38;;;13.60;99.90;;;;;;5043834;28;20029;-75
2022/11/07 09:37:03;;;;;;;10.82;1.10;;;13.60;99.90;;;;;;5025119;28;20033;-75
2022/11/07 09:39:29;;;;;;;6.13;0.82;;;13.70;99.90;;;;;;5019609;28;20389;-74
2022/11/07 09:42:04;;;;;;;8.25;0.82;;;13.80;99.90;;;;;;5039719;28;20027;-75
2022/11/07 09:44:57;;;;;;;8.40;0.95;;;13.80;99.90;;;;;;5042842;28;20025;-74
2022/11/07 09:47:40;;;;;;;10.27;0.93;;;13.90;99.90;;;;;;5032165;28;20028;-75
2022/11/07 09:50:08;;;;;;;;;;;13.90;99.90;;;;;;5037864;28;20520;-74
2022/11/07 09:52:47;;;;;;;9.18;0.80;;;13.90;99.90;;;;;;5041834;28;20007;-75
2022/11/07 09:55:23;;;;;;;8.00;0.80;;;13.90;99.90;;;;;;5042599;28;20029;-74
2022/11/07 09:57:53;;;;;;;10.05;1.48;;;13.90;99.90;;;;;;5040604;28;20215;-76
2022/11/07 10:00:20;;;;;;;11.57;1.02;;;14.00;99.90;;;;;;5044097;28;20021;-75
2022/11/07 10:02:54;;;;;;;6.35;1.05;;;14.00;99.90;;;;;;5039649;28;20065;-76
2022/11/07 10:05:52;;;;;;;14.65;1.70;;;14.00;99.90;;;;;;5023970;28;20040;-76
2022/11/07 10:08:34;;;;;;;13.05;1.35;;;14.00;99.90;;;;;;5037367;28;20025;-75
2022/11/07 10:11:07;;;;;;;9.75;0.93;;;14.00;99.90;;;;;;5043247;28;20541;-76
2022/11/07 10:13:52;;;;;;;7.85;0.98;;;13.90;99.90;;;;;;5026080;28;20055;-76
2022/11/07 10:16:46;;;;;;;9.23;0.70;;;13.90;99.90;;;;;;5034837;28;20056;-75
2022/11/07 10:19:32;;;;;;;12.75;1.33;;;14.00;99.90;;;;;;5046099;28;20071;-76
2022/11/07 10:22:13;;;;;;;8.70;0.90;;;14.10;99.90;;;;;;5037825;28;20033;-76
2022/11/07 10:24:52;;;;;;;7.18;1.05;;;14.30;99.90;;;;;;5040736;28;20027;-76
2022/11/07 10:27:21;;;;;;;11.93;1.02;;;14.40;99.90;;;;;;5023378;28;20028;-77
2022/11/07 10:29:51;;;;;;;9.15;0.70;;;14.40;99.90;;;;;;5021265;28;20037;-76
2022/11/07 10:32:28;;;;;;;11.48;1.10;;;14.40;99.90;;;;;;5036304;28;20099;-76
2022/11/07 10:35:23;;;;;;;12.20;1.20;;;14.40;99.90;;;;;;5030133;28;20060;-76
2022/11/07 10:38:00;;;;;;;8.70;0.70;;;14.40;99.90;;;;;;5016531;28;20642;-74
2022/11/07 10:40:39;;;;;;;7.90;0.82;;;14.40;99.90;;;;;;5037543;28;20029;-74
2022/11/07 10:43:11;;;;;;;9.23;1.02;;;14.30;99.90;;;;;;5035122;28;20044;-74
2022/11/07 10:45:39;;;;;;;8.25;0.70;;;14.30;99.90;;;;;;5042496;28;20033;-76
2022/11/07 10:48:05;;;;;;;12.50;1.45;;;14.30;99.90;;;;;;5035917;28;20505;-74
2022/11/07 10:50:30;;;;;;;11.27;1.05;;;14.30;99.90;;;;;;5037331;28;20064;-74
2022/11/07 10:52:59;;;;;;;7.85;0.93;;;14.30;99.90;;;;;;5033990;28;20154;-76
2022/11/07 10:55:26;;;;;;;7.18;0.77;;;14.30;99.90;;;;;;5034951;28;20103;-75
2022/11/07 10:58:02;;;;;;;10.15;1.00;;;14.30;99.90;;;;;;5017397;28;20124;-75
2022/11/07 11:00:31;;;;;;;15.40;1.20;;;14.30;99.90;;;;;;5034474;28;20036;-75
2022/11/07 11:02:58;;;;;;;10.55;0.80;;;14.40;99.90;;;;;;5033356;28;20160;-75
2022/11/07 11:05:42;;;;;;;10.32;1.00;;;14.40;99.90;;;;;;5036828;28;20037;-75
2022/11/07 11:08:19;;;;;;;16.13;2.53;;;14.50;99.90;;;;;;5032000;28;20750;-75
2022/11/07 11:10:46;;;;;;;9.63;0.80;;;14.50;99.90;;;;;;5038865;28;20049;-75
2022/11/07 11:13:32;;;;;;;9.65;1.27;;;14.50;99.90;;;;;;5015321;28;20052;-75
2022/11/07 11:16:08;;;;;;;12.27;2.33;;;14.60;99.90;;;;;;5035290;28;20033;-75
2022/11/07 11:18:35;;;;;;;11.88;1.15;;;14.60;99.90;;;;;;5035430;28;20029;-75
2022/11/07 11:21:02;;;;;;;11.02;1.25;;;14.60;99.90;;;;;;5030993;28;20106;-74
2022/11/07 11:23:30;;;;;;;8.88;0.90;;;14.60;99.90;;;;;;5009799;28;20029;-74
2022/11/07 11:26:21;;;;;;;8.23;1.00;;;14.60;99.90;;;;;;5035261;28;20391;-75
2022/11/07 11:28:53;;;;;;;8.50;0.93;;;14.70;99.90;;;;;;5020685;28;20041;-76
2022/11/07 11:31:39;;;;;;;11.68;1.42;;;14.70;99.90;;;;;;5033986;28;20076;-76
2022/11/07 11:34:23;;;;;;;9.05;1.10;;;14.80;99.90;;;;;;5036240;28;20557;-76
2022/11/07 11:37:16;;;;;;;8.45;0.90;;;14.90;99.90;;;;;;5031739;28;20021;-75
2022/11/07 11:40:11;;;;;;;;;;;14.90;99.90;;;;;;5014730;28;20106;-76
2022/11/07 11:43:02;;;;;;;6.78;0.93;;;15.00;99.90;;;;;;5010584;28;20419;-76
2022/11/07 11:45:46;;;;;;;11.10;0.98;;;15.00;99.90;;;;;;5038667;28;20488;-75
2022/11/07 11:48:47;;;;;;;12.95;0.98;;;15.00;99.90;;;;;;5035493;28;20440;-74
2022/11/07 11:51:40;;;;;;;12.27;2.20;;;15.10;99.90;;;;;;5037207;28;20048;-75
2022/11/07 11:54:11;;;;;;;12.23;2.08;;;15.20;99.90;;;;;;5034332;28;20033;-76
2022/11/07 11:57:00;;;;;;;10.27;1.08;;;15.20;99.90;;;;;;5036559;28;20136;-75
2022/11/07 11:59:53;;;;;;;10.13;0.80;;;15.30;99.90;;;;;;5037895;28;20057;-75
2022/11/07 12:02:42;;;;;;;7.38;0.63;;;15.30;99.90;;;;;;5038689;28;20472;-76
2022/11/07 12:05:21;;;;;;;10.48;1.13;;;15.40;99.90;;;;;;5041134;28;20167;-76
2022/11/07 12:08:02;;;;;;;8.10;0.80;;;15.30;99.90;;;;;;5038212;28;20048;-75
2022/11/07 12:11:00;;;;;;;8.93;1.00;;;15.30;99.90;;;;;;5033175;28;20115;-75
2022/11/07 12:13:31;;;;;;;9.10;1.15;;;15.40;99.90;;;;;;4995466;28;20044;-75
2022/11/07 12:16:20;;;;;;;10.60;1.00;;;15.40;99.90;;;;;;5035787;28;20115;-75
2022/11/07 12:19:03;;;;;;;10.98;1.10;;;15.40;99.90;;;;;;5035921;28;20484;-75
2022/11/07 12:21:34;;;;;;;;;;;15.50;99.90;;;;;;5043034;28;20104;-75
2022/11/07 12:24:04;;;;;;;10.80;1.33;;;15.50;99.90;;;;;;5040693;28;20415;-75
2022/11/07 12:26:41;;;;;;;7.80;0.75;;;15.60;99.90;;;;;;5045611;28;20033;-75
2022/11/07 12:29:30;;;;;;;10.13;0.80;;;15.60;99.90;;;;;;5011964;28;20029;-75
2022/11/07 12:32:19;;;;;;;9.35;0.70;;;15.70;99.90;;;;;;5041104;28;20041;-75
2022/11/07 12:35:17;;;;;;;9.00;0.60;;;15.80;99.90;;;;;;5038941;28;20377;-75
2022/11/07 12:38:04;;;;;;;12.85;0.70;;;15.90;99.90;;;;;;5039356;28;20384;-75
2022/11/07 12:40:58;;;;;;;12.18;1.02;;;15.80;99.90;;;;;;5038668;28;20428;-75
2022/11/07 12:43:55;;;;;;;14.73;1.42;;;15.80;99.90;;;;;;5037998;28;20031;-74
2022/11/07 12:46:39;;;;;;;8.25;0.77;;;15.80;99.90;;;;;;5034267;28;20047;-75
2022/11/07 12:49:13;;;;;;;6.75;0.80;;;15.90;99.90;;;;;;5037174;28;20056;-75
2022/11/07 12:52:14;;;;;;;11.63;1.42;;;15.90;99.90;;;;;;5016209;28;20660;-75
2022/11/07 12:54:53;;;;;;;5.30;0.70;;;16.00;99.90;;;;;;4990246;28;20078;-75
2022/11/07 12:57:25;;;;;;;9.55;0.68;;;16.00;99.90;;;;;;5035939;28;20033;-75
2022/11/07 13:00:14;;;;;;;12.10;0.93;;;16.00;99.90;;;;;;5034318;28;21067;-75
2022/11/07 13:03:08;;;;;;;9.00;1.25;;;16.00;99.90;;;;;;5034870;28;20029;-74
2022/11/07 13:05:53;;;;;;;9.70;0.80;;;16.00;99.90;;;;;;5037912;28;20112;-75
2022/11/07 13:08:37;;;;;;;9.02;0.93;;;16.00;99.90;;;;;;5021456;28;20102;-75
2022/11/07 13:11:19;;;;;;;5.53;0.95;;;16.00;99.90;;;;;;5043140;28;20040;-75
2022/11/07 13:13:57;;;;;;;;;;;16.00;99.90;;;;;;5019387;28;20041;-75